Time,TemperatureF,DewpointF,PressureIn,WindDirection,WindDirectionDegrees,WindSpeedMPH,WindSpeedGustMPH,Humidity,HourlyPrecipIn,Conditions,Clouds,dailyrainin,SoftwareType,DateUTC
2013-06-27 00:02:00,74.0,64.0,29.90,SW,226,0.0,0.0,71,0.00,,,0.00,,2013-06-27 05:02:00,
2013-06-27 00:12:00,74.0,64.0,29.90,SW,226,0.0,0.0,70,0.00,,,0.00,,2013-06-27 05:12:00,
2013-06-27 00:21:00,74.0,64.0,29.90,SW,226,0.0,1.0,72,0.00,,,0.00,,2013-06-27 05:21:00,
2013-06-27 00:32:00,73.0,64.0,29.91,SW,226,0.0,0.0,73,0.00,,,0.00,,2013-06-27 05:32:00,
2013-06-27 00:42:00,73.0,64.0,29.91,SW,226,0.0,0.0,74,0.00,,,0.00,,2013-06-27 05:42:00,
2013-06-27 00:53:00,73.0,64.0,29.90,SW,227,0.0,0.0,73,0.00,,,0.00,,2013-06-27 05:53:00,
2013-06-27 01:01:00,73.0,64.0,29.90,SW,227,0.0,0.0,73,0.00,,,0.00,,2013-06-27 06:01:00,
2013-06-27 01:12:00,73.0,64.0,29.90,South,183,0.0,1.0,73,0.00,,,0.00,,2013-06-27 06:12:00,
2013-06-27 01:22:00,72.0,64.0,29.90,SSW,207,0.0,1.0,76,0.00,,,0.00,,2013-06-27 06:22:00,
2013-06-27 01:34:00,72.0,64.0,29.89,South,190,0.0,1.0,77,0.00,,,0.00,,2013-06-27 06:34:00,
2013-06-27 01:43:00,72.0,64.0,29.89,South,191,0.0,1.0,77,0.00,,,0.00,,2013-06-27 06:43:00,
2013-06-27 01:53:00,71.0,63.0,29.89,South,191,0.0,0.0,76,0.00,,,0.00,,2013-06-27 06:53:00,
2013-06-27 02:02:00,71.0,64.0,29.90,SSW,207,0.0,1.0,78,0.00,,,0.00,,2013-06-27 07:02:00,
2013-06-27 02:12:00,71.0,64.0,29.90,SSW,207,0.0,0.0,79,0.00,,,0.00,,2013-06-27 07:12:00,
2013-06-27 02:22:00,71.0,65.0,29.90,SSW,207,0.0,0.0,80,0.00,,,0.00,,2013-06-27 07:22:00,
2013-06-27 02:33:00,71.0,64.0,29.90,SSW,207,0.0,1.0,79,0.00,,,0.00,,2013-06-27 07:33:00,
2013-06-27 02:42:00,70.0,64.0,29.90,SSW,207,0.0,0.0,81,0.00,,,0.00,,2013-06-27 07:42:00,
2013-06-27 02:52:00,70.0,64.0,29.91,SSW,207,0.0,0.0,82,0.00,,,0.00,,2013-06-27 07:52:00,
2013-06-27 03:01:00,70.0,65.0,29.91,SSW,207,0.0,0.0,84,0.00,,,0.00,,2013-06-27 08:01:00,
2013-06-27 03:11:00,70.0,66.0,29.91,SSW,207,0.0,0.0,86,0.00,,,0.00,,2013-06-27 08:11:00,
2013-06-27 03:22:00,70.0,66.0,29.91,SSW,207,0.0,0.0,88,0.00,,,0.00,,2013-06-27 08:22:00,
2013-06-27 03:34:00,70.0,67.0,29.91,SSW,207,0.0,0.0,89,0.00,,,0.00,,2013-06-27 08:34:00,
2013-06-27 03:52:00,70.0,66.0,29.91,SSW,207,0.0,0.0,88,0.00,,,0.00,,2013-06-27 08:52:00,
2013-06-27 04:02:00,69.0,65.0,29.91,SSW,207,0.0,0.0,88,0.00,,,0.00,,2013-06-27 09:02:00,
2013-06-27 04:22:00,70.0,66.0,29.91,SSW,207,0.0,0.0,88,0.00,,,0.00,,2013-06-27 09:22:00,
2013-06-27 04:34:00,70.0,66.0,29.91,SSW,207,0.0,0.0,88,0.00,,,0.00,,2013-06-27 09:34:00,
2013-06-27 04:43:00,69.0,65.0,29.91,SSW,207,0.0,0.0,88,0.00,,,0.00,,2013-06-27 09:43:00,
2013-06-27 04:53:00,70.0,66.0,29.92,SW,221,0.0,1.0,88,0.00,,,0.00,,2013-06-27 09:53:00,
2013-06-27 05:01:00,69.0,65.0,29.92,SW,222,0.0,1.0,88,0.00,,,0.00,,2013-06-27 10:01:00,
2013-06-27 05:11:00,69.0,66.0,29.91,SW,223,0.0,0.0,90,0.00,,,0.00,,2013-06-27 10:11:00,
2013-06-27 05:22:00,69.0,66.0,29.92,SW,223,0.0,0.0,91,0.00,,,0.00,,2013-06-27 10:22:00,
2013-06-27 05:32:00,69.0,66.0,29.92,SW,223,0.0,0.0,91,0.00,,,0.00,,2013-06-27 10:32:00,
2013-06-27 05:43:00,69.0,66.0,29.92,SW,223,0.0,0.0,91,0.00,,,0.00,,2013-06-27 10:43:00,
2013-06-27 05:54:00,69.0,66.0,29.91,SW,223,0.0,0.0,91,0.00,,,0.00,,2013-06-27 10:54:00,
2013-06-27 06:01:00,69.0,66.0,29.92,SW,223,0.0,0.0,91,0.00,,,0.00,,2013-06-27 11:01:00,
2013-06-27 06:11:00,69.0,66.0,29.92,SW,223,0.0,0.0,91,0.00,,,0.00,,2013-06-27 11:11:00,
2013-06-27 06:21:00,70.0,67.0,29.93,SW,223,0.0,1.0,91,0.00,,,0.00,,2013-06-27 11:21:00,
2013-06-27 06:33:00,70.0,67.0,29.93,SW,223,0.0,1.0,90,0.00,,,0.00,,2013-06-27 11:33:00,
2013-06-27 06:43:00,70.0,67.0,29.93,SW,224,1.0,1.0,90,0.00,,,0.00,,2013-06-27 11:43:00,
2013-06-27 06:52:00,71.0,67.0,29.93,NW,315,1.0,3.0,88,0.00,,,0.00,,2013-06-27 11:52:00,
2013-06-27 07:01:00,71.0,67.0,29.94,NW,309,1.0,2.0,88,0.00,,,0.00,,2013-06-27 12:01:00,
2013-06-27 07:11:00,71.0,68.0,29.94,West,281,0.0,1.0,89,0.00,,,0.00,,2013-06-27 12:11:00,
2013-06-27 07:22:00,71.0,68.0,29.94,West,280,0.0,0.0,90,0.00,,,0.00,,2013-06-27 12:22:00,
2013-06-27 07:34:00,71.0,68.0,29.95,West,280,0.0,0.0,90,0.00,,,0.00,,2013-06-27 12:34:00,
2013-06-27 07:42:00,71.0,68.0,29.96,West,280,1.0,2.0,90,0.00,,,0.00,,2013-06-27 12:42:00,
2013-06-27 08:01:00,72.0,69.0,29.93,West,280,0.0,0.0,89,0.00,,,0.00,,2013-06-27 13:01:00,
2013-06-27 08:11:00,72.0,67.0,29.94,NNW,344,3.0,7.0,85,0.00,,,0.00,,2013-06-27 13:11:00,
2013-06-27 08:22:00,73.0,68.0,29.92,SW,229,1.0,4.0,84,0.00,,,0.00,,2013-06-27 13:22:00,
2013-06-27 08:34:00,73.0,68.0,29.91,SSW,210,0.0,1.0,83,0.00,,,0.00,,2013-06-27 13:34:00,
2013-06-27 08:43:00,73.0,68.0,29.93,SW,224,0.0,1.0,84,0.00,,,0.00,,2013-06-27 13:43:00,
2013-06-27 08:52:00,73.0,68.0,29.95,SW,224,0.0,1.0,83,0.00,,,0.00,,2013-06-27 13:52:00,
2013-06-27 09:01:00,74.0,68.0,29.96,SW,221,1.0,2.0,81,0.00,,,0.00,,2013-06-27 14:01:00,
2013-06-27 09:11:00,74.0,68.0,29.98,SSW,203,3.0,10.0,82,0.00,,,0.00,,2013-06-27 14:11:00,
2013-06-27 09:22:00,74.0,67.0,29.98,SW,214,2.0,6.0,80,0.00,,,0.00,,2013-06-27 14:22:00,
2013-06-27 09:33:00,75.0,68.0,29.97,SW,231,0.0,4.0,80,0.00,,,0.00,,2013-06-27 14:33:00,
2013-06-27 09:43:00,75.0,68.0,29.96,SW,233,0.0,1.0,80,0.00,,,0.00,,2013-06-27 14:43:00,
2013-06-27 09:52:00,75.0,69.0,29.97,NNW,343,3.0,3.0,81,0.00,,,0.00,,2013-06-27 14:52:00,
2013-06-27 10:11:00,74.0,67.0,30.01,North,352,5.0,8.0,80,0.00,,,0.00,,2013-06-27 15:11:00,
2013-06-27 10:22:00,74.0,67.0,30.01,NNE,16,3.0,5.0,79,0.00,,,0.00,,2013-06-27 15:22:00,
2013-06-27 10:33:00,73.0,67.0,30.00,WNW,294,0.0,4.0,82,0.00,,,0.00,,2013-06-27 15:33:00,
2013-06-27 10:42:00,72.0,68.0,30.01,North,4,1.0,3.0,86,0.00,,,0.00,,2013-06-27 15:42:00,
2013-06-27 10:52:00,71.0,68.0,29.99,North,11,0.0,3.0,89,0.01,,,0.01,,2013-06-27 15:52:00,
2013-06-27 11:02:00,70.0,67.0,29.99,North,10,0.0,1.0,90,0.03,,,0.03,,2013-06-27 16:02:00,
2013-06-27 11:11:00,70.0,68.0,29.98,North,6,0.0,1.0,92,0.04,,,0.04,,2013-06-27 16:11:00,
2013-06-27 11:23:00,70.0,68.0,29.96,NNW,342,1.0,2.0,92,0.05,,,0.05,,2013-06-27 16:23:00,
2013-06-27 11:43:00,70.0,68.0,29.99,NNW,328,2.0,3.0,92,0.06,,,0.06,,2013-06-27 16:43:00,
2013-06-27 11:53:00,70.0,68.0,30.00,NW,325,2.0,4.0,93,0.05,,,0.06,,2013-06-27 16:53:00,
2013-06-27 12:01:00,70.0,68.0,29.97,NNW,335,1.0,3.0,93,0.04,,,0.07,,2013-06-27 17:01:00,
2013-06-27 12:11:00,70.0,68.0,30.00,WSW,244,0.0,2.0,93,0.03,,,0.07,,2013-06-27 17:11:00,
2013-06-27 12:22:00,70.0,68.0,29.97,North,349,4.0,5.0,94,0.02,,,0.07,,2013-06-27 17:22:00,
2013-06-27 12:33:00,70.0,68.0,29.97,East,97,0.0,5.0,93,0.01,,,0.07,,2013-06-27 17:33:00,
2013-06-27 12:43:00,70.0,68.0,29.99,East,96,0.0,0.0,93,0.01,,,0.07,,2013-06-27 17:43:00,
2013-06-27 12:53:00,70.0,68.0,29.98,East,96,1.0,1.0,94,0.01,,,0.07,,2013-06-27 17:53:00,
2013-06-27 13:01:00,71.0,69.0,29.98,East,98,0.0,1.0,95,0.00,,,0.07,,2013-06-27 18:01:00,
2013-06-27 13:11:00,71.0,69.0,30.00,ESE,104,0.0,1.0,94,0.00,,,0.07,,2013-06-27 18:11:00,
2013-06-27 13:22:00,71.0,69.0,30.01,NW,307,1.0,3.0,92,0.00,,,0.07,,2013-06-27 18:22:00,
2013-06-27 13:32:00,71.0,69.0,30.00,North,355,2.0,4.0,92,0.00,,,0.07,,2013-06-27 18:32:00,
2013-06-27 13:43:00,71.0,69.0,29.99,NW,326,0.0,5.0,93,0.02,,,0.09,,2013-06-27 18:43:00,
2013-06-27 13:52:00,71.0,69.0,29.99,SE,146,0.0,3.0,92,0.02,,,0.09,,2013-06-27 18:52:00,
2013-06-27 14:23:00,71.0,69.0,30.00,WSW,250,0.0,2.0,93,0.11,,,0.18,,2013-06-27 19:23:00,
2013-06-27 14:33:00,71.0,69.0,29.98,SW,217,0.0,2.0,93,0.11,,,0.18,,2013-06-27 19:33:00,
2013-06-27 14:42:00,71.0,69.0,29.99,WSW,254,0.0,2.0,94,0.09,,,0.18,,2013-06-27 19:42:00,
2013-06-27 14:53:00,72.0,70.0,30.00,WSW,253,0.0,1.0,94,0.09,,,0.18,,2013-06-27 19:53:00,
2013-06-27 15:01:00,73.0,71.0,29.98,WSW,254,0.0,1.0,94,0.04,,,0.18,,2013-06-27 20:01:00,
2013-06-27 15:11:00,74.0,72.0,29.98,WSW,253,1.0,1.0,93,0.01,,,0.18,,2013-06-27 20:11:00,
2013-06-27 15:22:00,74.0,71.0,29.99,SE,131,1.0,3.0,90,0.00,,,0.18,,2013-06-27 20:22:00,
2013-06-27 15:36:00,74.0,71.0,29.99,NW,321,1.0,2.0,90,0.00,,,0.18,,2013-06-27 20:36:00,
2013-06-27 15:45:00,75.0,71.0,29.99,SSE,150,0.0,3.0,88,0.00,,,0.18,,2013-06-27 20:45:00,
2013-06-27 15:54:00,76.0,72.0,29.99,SW,226,0.0,1.0,86,0.00,,,0.18,,2013-06-27 20:54:00,
2013-06-27 16:03:00,76.0,71.0,29.99,SW,226,0.0,1.0,84,0.00,,,0.18,,2013-06-27 21:03:00,
2013-06-27 16:13:00,78.0,73.0,29.99,SW,226,0.0,1.0,84,0.00,,,0.18,,2013-06-27 21:13:00,
2013-06-27 16:24:00,78.0,70.0,29.98,SW,226,0.0,1.0,77,0.00,,,0.18,,2013-06-27 21:24:00,
2013-06-27 16:34:00,79.0,71.0,29.98,SW,226,0.0,1.0,76,0.00,,,0.18,,2013-06-27 21:34:00,
2013-06-27 16:44:00,80.0,71.0,29.98,SW,226,0.0,1.0,75,0.00,,,0.18,,2013-06-27 21:44:00,
2013-06-27 16:53:00,81.0,71.0,29.98,WSW,240,1.0,2.0,71,0.00,,,0.18,,2013-06-27 21:53:00,
2013-06-27 17:05:00,81.0,71.0,29.97,North,359,2.0,4.0,72,0.00,,,0.18,,2013-06-27 22:05:00,
2013-06-27 17:13:00,81.0,69.0,29.96,NW,318,1.0,3.0,68,0.00,,,0.18,,2013-06-27 22:13:00,
2013-06-27 17:22:00,81.0,69.0,29.96,NW,316,0.0,1.0,67,0.00,,,0.18,,2013-06-27 22:22:00,
2013-06-27 17:33:00,82.0,71.0,29.95,NW,316,0.0,1.0,70,0.00,,,0.18,,2013-06-27 22:33:00,
2013-06-27 17:55:00,82.0,69.0,29.95,West,264,0.0,1.0,65,0.00,,,0.18,,2013-06-27 22:55:00,
2013-06-27 18:03:00,83.0,70.0,29.95,West,265,0.0,1.0,66,0.00,,,0.18,,2013-06-27 23:03:00,
2013-06-27 18:15:00,84.0,70.0,29.95,West,264,0.0,1.0,64,0.00,,,0.18,,2013-06-27 23:15:00,
2013-06-27 18:24:00,83.0,70.0,29.95,West,272,1.0,2.0,66,0.00,,,0.18,,2013-06-27 23:24:00,
2013-06-27 18:34:00,83.0,71.0,29.95,West,269,0.0,1.0,68,0.00,,,0.18,,2013-06-27 23:34:00,
2013-06-27 18:44:00,85.0,72.0,29.94,West,267,1.0,2.0,65,0.00,,,0.18,,2013-06-27 23:44:00,
2013-06-27 18:55:00,85.0,70.0,29.94,West,268,0.0,2.0,62,0.00,,,0.18,,2013-06-27 23:55:00,
2013-06-27 19:13:00,85.0,71.0,29.94,West,266,0.0,1.0,63,0.00,,,0.18,,2013-06-28 00:13:00,
2013-06-27 19:34:00,84.0,70.0,29.94,West,266,0.0,1.0,64,0.00,,,0.18,,2013-06-28 00:34:00,
2013-06-27 19:54:00,83.0,71.0,29.94,WSW,248,0.0,1.0,68,0.00,,,0.18,,2013-06-28 00:54:00,
2013-06-27 20:23:00,81.0,71.0,29.93,WSW,248,0.0,1.0,72,0.00,,,0.18,,2013-06-28 01:23:00,
2013-06-27 20:35:00,82.0,72.0,29.92,WSW,250,1.0,1.0,71,0.00,,,0.18,,2013-06-28 01:35:00,
2013-06-27 20:45:00,82.0,71.0,29.92,WSW,251,0.0,1.0,69,0.00,,,0.18,,2013-06-28 01:45:00,
2013-06-27 20:54:00,81.0,70.0,29.93,WSW,251,0.0,1.0,69,0.00,,,0.18,,2013-06-28 01:54:00,
2013-06-27 21:04:00,79.0,68.0,29.93,WSW,249,0.0,1.0,69,0.00,,,0.18,,2013-06-28 02:04:00,
2013-06-27 21:15:00,79.0,68.0,29.93,WSW,250,0.0,0.0,70,0.00,,,0.18,,2013-06-28 02:15:00,
2013-06-27 21:25:00,78.0,68.0,29.93,WSW,249,0.0,0.0,72,0.00,,,0.18,,2013-06-28 02:25:00,
2013-06-27 21:35:00,77.0,68.0,29.93,WSW,250,0.0,0.0,73,0.00,,,0.18,,2013-06-28 02:35:00,
2013-06-27 21:47:00,77.0,68.0,29.94,WSW,250,0.0,0.0,74,0.00,,,0.18,,2013-06-28 02:47:00,
2013-06-27 22:04:00,76.0,67.0,29.97,WSW,249,0.0,0.0,75,0.00,,,0.18,,2013-06-28 03:04:00,
2013-06-27 22:14:00,76.0,67.0,29.98,WSW,249,0.0,0.0,75,0.00,,,0.18,,2013-06-28 03:14:00,
2013-06-27 22:25:00,76.0,68.0,29.98,WSW,250,0.0,0.0,76,0.00,,,0.18,,2013-06-28 03:25:00,
2013-06-27 22:36:00,75.0,67.0,29.98,WSW,250,0.0,0.0,77,0.00,,,0.18,,2013-06-28 03:36:00,
2013-06-27 22:54:00,74.0,67.0,29.98,WSW,250,0.0,0.0,80,0.00,,,0.18,,2013-06-28 03:54:00,
2013-06-27 23:02:00,74.0,68.0,29.98,WSW,250,0.0,0.0,81,0.00,,,0.18,,2013-06-28 04:02:00,
2013-06-27 23:11:00,74.0,68.0,29.98,WSW,250,0.0,0.0,82,0.00,,,0.18,,2013-06-28 04:11:00,
2013-06-27 23:22:00,73.0,68.0,29.98,WSW,250,0.0,0.0,83,0.00,,,0.18,,2013-06-28 04:22:00,
2013-06-27 23:33:00,72.0,67.0,29.98,WSW,250,0.0,0.0,85,0.00,,,0.18,,2013-06-28 04:33:00,
2013-06-27 23:43:00,72.0,68.0,29.98,WSW,249,0.0,0.0,86,0.00,,,0.18,,2013-06-28 04:43:00,
2013-06-27 23:53:00,72.0,67.0,29.97,WSW,250,0.0,0.0,85,0.00,,,0.18,,2013-06-28 04:53:00,